sensor_id;sensor_type;location;lat;lon;timestamp;P1;durP1;ratioP1;P2;durP2;ratioP2
22441;SDS011;11388;54.456;9.752;2022-08-01T00:00:48;13.05;;;9.18;;
22441;SDS011;11388;54.456;9.752;2022-08-01T00:03:14;16.17;;;12.43;;
22441;SDS011;11388;54.456;9.752;2022-08-01T00:05:42;13.13;;;10.73;;
22441;SDS011;11388;54.456;9.752;2022-08-01T00:08:10;18.63;;;12.88;;
22441;SDS011;11388;54.456;9.752;2022-08-01T00:10:39;12.98;;;11.25;;
22441;SDS011;11388;54.456;9.752;2022-08-01T00:13:07;20.30;;;13.27;;
22441;SDS011;11388;54.456;9.752;2022-08-01T00:15:35;21.25;;;14.23;;
22441;SDS011;11388;54.456;9.752;2022-08-01T00:18:01;23.33;;;14.45;;
22441;SDS011;11388;54.456;9.752;2022-08-01T00:20:30;17.95;;;12.13;;
22441;SDS011;11388;54.456;9.752;2022-08-01T00:22:56;18.33;;;14.20;;
22441;SDS011;11388;54.456;9.752;2022-08-01T00:25:30;22.27;;;16.38;;
22441;SDS011;11388;54.456;9.752;2022-08-01T00:27:59;17.58;;;14.55;;
22441;SDS011;11388;54.456;9.752;2022-08-01T00:30:27;19.58;;;14.30;;
22441;SDS011;11388;54.456;9.752;2022-08-01T00:32:53;19.65;;;14.98;;
22441;SDS011;11388;54.456;9.752;2022-08-01T00:35:21;18.77;;;16.17;;
22441;SDS011;11388;54.456;9.752;2022-08-01T00:37:47;25.48;;;19.02;;
22441;SDS011;11388;54.456;9.752;2022-08-01T00:40:13;23.75;;;17.10;;
22441;SDS011;11388;54.456;9.752;2022-08-01T00:42:47;21.20;;;16.33;;
22441;SDS011;11388;54.456;9.752;2022-08-01T00:45:24;26.00;;;18.25;;
22441;SDS011;11388;54.456;9.752;2022-08-01T00:47:54;28.27;;;18.08;;
22441;SDS011;11388;54.456;9.752;2022-08-01T00:50:28;24.67;;;17.88;;
22441;SDS011;11388;54.456;9.752;2022-08-01T00:52:55;23.17;;;17.02;;
22441;SDS011;11388;54.456;9.752;2022-08-01T00:55:22;22.88;;;16.13;;
22441;SDS011;11388;54.456;9.752;2022-08-01T00:57:49;23.13;;;17.10;;
22441;SDS011;11388;54.456;9.752;2022-08-01T01:00:15;20.80;;;16.15;;
22441;SDS011;11388;54.456;9.752;2022-08-01T01:02:41;29.23;;;17.10;;
22441;SDS011;11388;54.456;9.752;2022-08-01T01:05:09;24.95;;;16.65;;
22441;SDS011;11388;54.456;9.752;2022-08-01T01:29:52;16.00;;;12.73;;
22441;SDS011;11388;54.456;9.752;2022-08-01T01:32:31;14.75;;;12.32;;
22441;SDS011;11388;54.456;9.752;2022-08-01T01:35:05;16.65;;;12.70;;
22441;SDS011;11388;54.456;9.752;2022-08-01T01:37:34;18.83;;;13.13;;
22441;SDS011;11388;54.456;9.752;2022-08-01T01:40:03;17.20;;;12.32;;
22441;SDS011;11388;54.456;9.752;2022-08-01T01:42:30;19.05;;;12.65;;
22441;SDS011;11388;54.456;9.752;2022-08-01T01:45:02;17.58;;;11.30;;
22441;SDS011;11388;54.456;9.752;2022-08-01T01:47:35;14.07;;;11.43;;
22441;SDS011;11388;54.456;9.752;2022-08-01T01:50:05;17.23;;;12.13;;
22441;SDS011;11388;54.456;9.752;2022-08-01T01:52:35;15.75;;;12.30;;
22441;SDS011;11388;54.456;9.752;2022-08-01T01:55:05;15.07;;;11.32;;
22441;SDS011;11388;54.456;9.752;2022-08-01T02:00:56;15.40;;;11.07;;
22441;SDS011;11388;54.456;9.752;2022-08-01T02:03:41;19.45;;;11.45;;
22441;SDS011;11388;54.456;9.752;2022-08-01T02:06:08;15.15;;;12.65;;
22441;SDS011;11388;54.456;9.752;2022-08-01T02:08:35;15.70;;;12.13;;
22441;SDS011;11388;54.456;9.752;2022-08-01T02:11:03;18.27;;;13.50;;
22441;SDS011;11388;54.456;9.752;2022-08-01T02:13:46;12.35;;;10.05;;
22441;SDS011;11388;54.456;9.752;2022-08-01T02:16:16;15.23;;;11.40;;
22441;SDS011;11388;54.456;9.752;2022-08-01T02:18:42;15.93;;;11.95;;
22441;SDS011;11388;54.456;9.752;2022-08-01T02:21:12;15.45;;;10.40;;
22441;SDS011;11388;54.456;9.752;2022-08-01T02:23:42;14.85;;;11.70;;
22441;SDS011;11388;54.456;9.752;2022-08-01T02:26:19;16.80;;;11.88;;
22441;SDS011;11388;54.456;9.752;2022-08-01T02:28:49;12.73;;;10.00;;
22441;SDS011;11388;54.456;9.752;2022-08-01T02:31:21;14.10;;;9.40;;
22441;SDS011;11388;54.456;9.752;2022-08-01T02:34:09;10.85;;;9.15;;
22441;SDS011;11388;54.456;9.752;2022-08-01T02:42:55;13.38;;;8.93;;
22441;SDS011;11388;54.456;9.752;2022-08-01T02:45:25;10.38;;;8.60;;
22441;SDS011;11388;54.456;9.752;2022-08-01T02:47:51;13.38;;;9.25;;
22441;SDS011;11388;54.456;9.752;2022-08-01T02:50:24;13.88;;;9.73;;
22441;SDS011;11388;54.456;9.752;2022-08-01T02:52:52;12.05;;;8.90;;
22441;SDS011;11388;54.456;9.752;2022-08-01T02:55:20;13.75;;;8.60;;
22441;SDS011;11388;54.456;9.752;2022-08-01T02:57:47;11.93;;;8.13;;
22441;SDS011;11388;54.456;9.752;2022-08-01T03:00:19;11.40;;;7.47;;
22441;SDS011;11388;54.456;9.752;2022-08-01T03:02:46;16.15;;;9.20;;
22441;SDS011;11388;54.456;9.752;2022-08-01T03:05:16;10.02;;;7.32;;
22441;SDS011;11388;54.456;9.752;2022-08-01T03:07:47;10.15;;;6.70;;
22441;SDS011;11388;54.456;9.752;2022-08-01T03:10:17;9.38;;;6.63;;
22441;SDS011;11388;54.456;9.752;2022-08-01T03:12:43;9.57;;;5.97;;
22441;SDS011;11388;54.456;9.752;2022-08-01T03:15:11;8.00;;;5.85;;
22441;SDS011;11388;54.456;9.752;2022-08-01T03:17:41;8.98;;;5.25;;
22441;SDS011;11388;54.456;9.752;2022-08-01T03:20:12;8.77;;;5.25;;
22441;SDS011;11388;54.456;9.752;2022-08-01T03:22:40;7.97;;;5.00;;
22441;SDS011;11388;54.456;9.752;2022-08-01T03:25:12;6.32;;;4.75;;
22441;SDS011;11388;54.456;9.752;2022-08-01T03:27:41;7.22;;;4.63;;
22441;SDS011;11388;54.456;9.752;2022-08-01T03:30:12;6.70;;;4.43;;
22441;SDS011;11388;54.456;9.752;2022-08-01T03:32:40;6.93;;;4.78;;
22441;SDS011;11388;54.456;9.752;2022-08-01T03:35:28;8.45;;;4.50;;
22441;SDS011;11388;54.456;9.752;2022-08-01T03:38:27;8.50;;;4.90;;
22441;SDS011;11388;54.456;9.752;2022-08-01T03:41:11;7.45;;;5.20;;
22441;SDS011;11388;54.456;9.752;2022-08-01T03:43:43;7.60;;;4.32;;
22441;SDS011;11388;54.456;9.752;2022-08-01T03:46:30;6.57;;;4.25;;
22441;SDS011;11388;54.456;9.752;2022-08-01T03:49:03;8.30;;;4.47;;
22441;SDS011;11388;54.456;9.752;2022-08-01T03:51:36;5.40;;;3.40;;
22441;SDS011;11388;54.456;9.752;2022-08-01T03:54:03;8.65;;;3.53;;
22441;SDS011;11388;54.456;9.752;2022-08-01T03:56:30;5.57;;;3.60;;
22441;SDS011;11388;54.456;9.752;2022-08-01T03:58:58;5.53;;;3.35;;
22441;SDS011;11388;54.456;9.752;2022-08-01T04:01:25;7.55;;;3.70;;
22441;SDS011;11388;54.456;9.752;2022-08-01T04:03:52;5.45;;;3.25;;
22441;SDS011;11388;54.456;9.752;2022-08-01T04:06:19;5.38;;;3.50;;
22441;SDS011;11388;54.456;9.752;2022-08-01T04:08:45;5.07;;;2.90;;
22441;SDS011;11388;54.456;9.752;2022-08-01T04:11:20;6.25;;;3.30;;
22441;SDS011;11388;54.456;9.752;2022-08-01T04:13:47;5.78;;;3.88;;
22441;SDS011;11388;54.456;9.752;2022-08-01T04:16:13;6.75;;;3.47;;
22441;SDS011;11388;54.456;9.752;2022-08-01T04:18:39;8.38;;;4.00;;
22441;SDS011;11388;54.456;9.752;2022-08-01T04:21:05;6.90;;;3.63;;
22441;SDS011;11388;54.456;9.752;2022-08-01T04:27:11;7.53;;;4.20;;
22441;SDS011;11388;54.456;9.752;2022-08-01T04:29:47;6.10;;;3.40;;
22441;SDS011;11388;54.456;9.752;2022-08-01T04:32:16;13.35;;;3.80;;
22441;SDS011;11388;54.456;9.752;2022-08-01T04:34:44;6.65;;;3.90;;
22441;SDS011;11388;54.456;9.752;2022-08-01T04:37:11;6.22;;;3.75;;
22441;SDS011;11388;54.456;9.752;2022-08-01T04:39:42;7.95;;;3.78;;
22441;SDS011;11388;54.456;9.752;2022-08-01T04:42:16;9.93;;;4.35;;
22441;SDS011;11388;54.456;9.752;2022-08-01T04:44:42;7.03;;;4.18;;
22441;SDS011;11388;54.456;9.752;2022-08-01T04:47:08;7.13;;;3.50;;
22441;SDS011;11388;54.456;9.752;2022-08-01T04:49:38;10.00;;;3.55;;
22441;SDS011;11388;54.456;9.752;2022-08-01T04:52:05;5.55;;;3.25;;
22441;SDS011;11388;54.456;9.752;2022-08-01T04:54:35;5.35;;;3.42;;
22441;SDS011;11388;54.456;9.752;2022-08-01T04:57:06;6.50;;;2.90;;
22441;SDS011;11388;54.456;9.752;2022-08-01T04:59:37;4.78;;;3.10;;
22441;SDS011;11388;54.456;9.752;2022-08-01T05:02:07;4.65;;;2.60;;
22441;SDS011;11388;54.456;9.752;2022-08-01T05:04:41;6.50;;;2.88;;
22441;SDS011;11388;54.456;9.752;2022-08-01T05:07:11;7.78;;;3.20;;
22441;SDS011;11388;54.456;9.752;2022-08-01T05:09:40;5.78;;;2.70;;
22441;SDS011;11388;54.456;9.752;2022-08-01T05:12:06;5.82;;;2.58;;
22441;SDS011;11388;54.456;9.752;2022-08-01T05:14:33;5.72;;;2.80;;
22441;SDS011;11388;54.456;9.752;2022-08-01T05:17:05;8.10;;;2.90;;
22441;SDS011;11388;54.456;9.752;2022-08-01T05:19:35;4.35;;;2.15;;
22441;SDS011;11388;54.456;9.752;2022-08-01T05:22:03;4.05;;;2.40;;
22441;SDS011;11388;54.456;9.752;2022-08-01T05:24:31;4.88;;;1.80;;
22441;SDS011;11388;54.456;9.752;2022-08-01T05:27:00;2.95;;;1.40;;
22441;SDS011;11388;54.456;9.752;2022-08-01T05:29:26;6.53;;;1.40;;
22441;SDS011;11388;54.456;9.752;2022-08-01T05:31:56;2.97;;;1.30;;
22441;SDS011;11388;54.456;9.752;2022-08-01T05:34:22;2.33;;;1.10;;
22441;SDS011;11388;54.456;9.752;2022-08-01T05:36:48;6.22;;;1.30;;
22441;SDS011;11388;54.456;9.752;2022-08-01T05:39:14;4.63;;;1.20;;
22441;SDS011;11388;54.456;9.752;2022-08-01T05:41:40;3.92;;;1.20;;
22441;SDS011;11388;54.456;9.752;2022-08-01T05:44:14;3.00;;;1.33;;
22441;SDS011;11388;54.456;9.752;2022-08-01T05:46:39;5.88;;;1.38;;
22441;SDS011;11388;54.456;9.752;2022-08-01T05:49:05;6.82;;;1.58;;
22441;SDS011;11388;54.456;9.752;2022-08-01T05:51:34;6.40;;;1.90;;
22441;SDS011;11388;54.456;9.752;2022-08-01T05:54:00;5.65;;;1.80;;
22441;SDS011;11388;54.456;9.752;2022-08-01T05:56:26;3.88;;;1.73;;
22441;SDS011;11388;54.456;9.752;2022-08-01T05:59:53;4.25;;;1.30;;
22441;SDS011;11388;54.456;9.752;2022-08-01T06:06:09;7.28;;;2.03;;
22441;SDS011;11388;54.456;9.752;2022-08-01T06:18:44;10.80;;;2.72;;
22441;SDS011;11388;54.456;9.752;2022-08-01T06:24:26;10.82;;;2.92;;
22441;SDS011;11388;54.456;9.752;2022-08-01T06:26:52;8.68;;;2.40;;
22441;SDS011;11388;54.456;9.752;2022-08-01T06:29:18;9.77;;;2.38;;
22441;SDS011;11388;54.456;9.752;2022-08-01T06:31:44;6.35;;;1.88;;
22441;SDS011;11388;54.456;9.752;2022-08-01T06:34:12;7.85;;;1.90;;
22441;SDS011;11388;54.456;9.752;2022-08-01T06:36:38;9.43;;;2.20;;
22441;SDS011;11388;54.456;9.752;2022-08-01T06:39:03;9.35;;;2.03;;
22441;SDS011;11388;54.456;9.752;2022-08-01T06:41:29;8.85;;;2.10;;
22441;SDS011;11388;54.456;9.752;2022-08-01T06:43:55;11.32;;;2.30;;
22441;SDS011;11388;54.456;9.752;2022-08-01T06:49:27;12.95;;;2.42;;
22441;SDS011;11388;54.456;9.752;2022-08-01T06:51:53;10.57;;;2.40;;
22441;SDS011;11388;54.456;9.752;2022-08-01T06:54:18;10.30;;;2.35;;
22441;SDS011;11388;54.456;9.752;2022-08-01T06:56:44;13.45;;;2.45;;
22441;SDS011;11388;54.456;9.752;2022-08-01T06:59:10;13.40;;;2.80;;
22441;SDS011;11388;54.456;9.752;2022-08-01T07:01:36;12.85;;;2.85;;
22441;SDS011;11388;54.456;9.752;2022-08-01T07:04:02;11.02;;;2.20;;
22441;SDS011;11388;54.456;9.752;2022-08-01T07:06:28;13.35;;;2.47;;
22441;SDS011;11388;54.456;9.752;2022-08-01T07:08:54;9.45;;;2.03;;
22441;SDS011;11388;54.456;9.752;2022-08-01T07:11:23;10.00;;;2.20;;
22441;SDS011;11388;54.456;9.752;2022-08-01T07:13:49;15.00;;;3.00;;
22441;SDS011;11388;54.456;9.752;2022-08-01T07:16:15;9.63;;;2.55;;
22441;SDS011;11388;54.456;9.752;2022-08-01T07:18:42;13.48;;;2.65;;
22441;SDS011;11388;54.456;9.752;2022-08-01T07:21:08;11.93;;;2.50;;
22441;SDS011;11388;54.456;9.752;2022-08-01T07:23:34;20.33;;;2.88;;
22441;SDS011;11388;54.456;9.752;2022-08-01T07:26:00;15.80;;;2.60;;
22441;SDS011;11388;54.456;9.752;2022-08-01T07:28:28;11.73;;;2.40;;
22441;SDS011;11388;54.456;9.752;2022-08-01T07:30:54;10.90;;;2.50;;
22441;SDS011;11388;54.456;9.752;2022-08-01T07:33:20;9.07;;;2.22;;
22441;SDS011;11388;54.456;9.752;2022-08-01T07:35:47;12.48;;;2.50;;
22441;SDS011;11388;54.456;9.752;2022-08-01T07:41:11;11.30;;;2.45;;
22441;SDS011;11388;54.456;9.752;2022-08-01T07:43:37;13.50;;;2.78;;
22441;SDS011;11388;54.456;9.752;2022-08-01T07:46:03;12.93;;;3.03;;
22441;SDS011;11388;54.456;9.752;2022-08-01T07:48:29;11.75;;;2.40;;
22441;SDS011;11388;54.456;9.752;2022-08-01T07:50:55;10.07;;;2.03;;
22441;SDS011;11388;54.456;9.752;2022-08-01T07:53:21;9.18;;;2.17;;
22441;SDS011;11388;54.456;9.752;2022-08-01T07:55:47;10.70;;;2.58;;
22441;SDS011;11388;54.456;9.752;2022-08-01T07:58:14;10.30;;;2.35;;
22441;SDS011;11388;54.456;9.752;2022-08-01T08:00:40;11.40;;;1.90;;
22441;SDS011;11388;54.456;9.752;2022-08-01T08:03:06;12.98;;;2.80;;
22441;SDS011;11388;54.456;9.752;2022-08-01T08:05:32;11.07;;;2.85;;
22441;SDS011;11388;54.456;9.752;2022-08-01T08:10:38;10.95;;;1.88;;
22441;SDS011;11388;54.456;9.752;2022-08-01T08:13:04;8.65;;;2.17;;
22441;SDS011;11388;54.456;9.752;2022-08-01T08:15:30;10.73;;;2.00;;
22441;SDS011;11388;54.456;9.752;2022-08-01T08:17:56;10.18;;;1.90;;
22441;SDS011;11388;54.456;9.752;2022-08-01T08:20:21;10.82;;;2.17;;
22441;SDS011;11388;54.456;9.752;2022-08-01T08:22:52;11.38;;;1.65;;
22441;SDS011;11388;54.456;9.752;2022-08-01T08:25:18;8.88;;;2.28;;
22441;SDS011;11388;54.456;9.752;2022-08-01T08:27:45;11.30;;;2.20;;
22441;SDS011;11388;54.456;9.752;2022-08-01T08:30:11;8.05;;;1.70;;
22441;SDS011;11388;54.456;9.752;2022-08-01T08:32:39;7.68;;;1.63;;
22441;SDS011;11388;54.456;9.752;2022-08-01T08:35:05;8.65;;;1.70;;
22441;SDS011;11388;54.456;9.752;2022-08-01T08:37:32;8.70;;;2.13;;
22441;SDS011;11388;54.456;9.752;2022-08-01T08:39:59;9.32;;;1.70;;
22441;SDS011;11388;54.456;9.752;2022-08-01T08:42:25;8.57;;;2.00;;
22441;SDS011;11388;54.456;9.752;2022-08-01T08:44:51;9.23;;;2.15;;
22441;SDS011;11388;54.456;9.752;2022-08-01T08:47:19;11.30;;;1.85;;
22441;SDS011;11388;54.456;9.752;2022-08-01T08:49:49;9.98;;;1.90;;
22441;SDS011;11388;54.456;9.752;2022-08-01T08:52:20;14.77;;;1.90;;
22441;SDS011;11388;54.456;9.752;2022-08-01T08:54:47;7.97;;;1.55;;
22441;SDS011;11388;54.456;9.752;2022-08-01T08:57:14;7.80;;;1.73;;
22441;SDS011;11388;54.456;9.752;2022-08-01T08:59:44;9.50;;;1.98;;
22441;SDS011;11388;54.456;9.752;2022-08-01T09:02:10;8.13;;;1.52;;
22441;SDS011;11388;54.456;9.752;2022-08-01T09:04:37;10.43;;;1.98;;
22441;SDS011;11388;54.456;9.752;2022-08-01T09:07:04;6.30;;;1.63;;
22441;SDS011;11388;54.456;9.752;2022-08-01T09:09:31;9.75;;;2.28;;
22441;SDS011;11388;54.456;9.752;2022-08-01T09:11:57;7.75;;;1.40;;
22441;SDS011;11388;54.456;9.752;2022-08-01T09:14:24;8.60;;;1.38;;
22441;SDS011;11388;54.456;9.752;2022-08-01T09:16:59;8.63;;;1.80;;
22441;SDS011;11388;54.456;9.752;2022-08-01T09:22:06;8.93;;;1.80;;
22441;SDS011;11388;54.456;9.752;2022-08-01T09:24:56;9.07;;;2.20;;
22441;SDS011;11388;54.456;9.752;2022-08-01T09:27:24;7.20;;;1.55;;
22441;SDS011;11388;54.456;9.752;2022-08-01T09:29:51;8.00;;;1.65;;
22441;SDS011;11388;54.456;9.752;2022-08-01T09:32:21;7.10;;;1.50;;
22441;SDS011;11388;54.456;9.752;2022-08-01T09:34:47;7.93;;;1.45;;
22441;SDS011;11388;54.456;9.752;2022-08-01T09:37:12;9.35;;;1.65;;
22441;SDS011;11388;54.456;9.752;2022-08-01T09:39:43;8.30;;;1.88;;
22441;SDS011;11388;54.456;9.752;2022-08-01T09:42:20;8.25;;;1.60;;
22441;SDS011;11388;54.456;9.752;2022-08-01T09:44:49;8.05;;;1.30;;
22441;SDS011;11388;54.456;9.752;2022-08-01T09:47:15;5.07;;;1.20;;
22441;SDS011;11388;54.456;9.752;2022-08-01T09:49:42;8.80;;;1.63;;
22441;SDS011;11388;54.456;9.752;2022-08-01T09:52:13;9.07;;;2.00;;
22441;SDS011;11388;54.456;9.752;2022-08-01T09:54:39;9.02;;;1.83;;
22441;SDS011;11388;54.456;9.752;2022-08-01T09:57:16;10.38;;;1.80;;
22441;SDS011;11388;54.456;9.752;2022-08-01T09:59:44;7.57;;;1.70;;
22441;SDS011;11388;54.456;9.752;2022-08-01T10:02:12;6.78;;;1.50;;
22441;SDS011;11388;54.456;9.752;2022-08-01T10:04:50;6.97;;;1.70;;
22441;SDS011;11388;54.456;9.752;2022-08-01T10:07:16;8.13;;;1.50;;
22441;SDS011;11388;54.456;9.752;2022-08-01T10:09:43;8.02;;;1.30;;
22441;SDS011;11388;54.456;9.752;2022-08-01T10:12:10;10.65;;;1.73;;
22441;SDS011;11388;54.456;9.752;2022-08-01T10:14:39;6.68;;;1.48;;
22441;SDS011;11388;54.456;9.752;2022-08-01T10:17:06;7.53;;;2.20;;
22441;SDS011;11388;54.456;9.752;2022-08-01T10:19:35;7.63;;;1.60;;
22441;SDS011;11388;54.456;9.752;2022-08-01T10:22:02;11.18;;;1.95;;
22441;SDS011;11388;54.456;9.752;2022-08-01T10:24:34;7.40;;;1.77;;
22441;SDS011;11388;54.456;9.752;2022-08-01T10:27:03;6.78;;;1.50;;
22441;SDS011;11388;54.456;9.752;2022-08-01T10:29:34;8.63;;;1.40;;
22441;SDS011;11388;54.456;9.752;2022-08-01T10:32:06;6.65;;;1.70;;
22441;SDS011;11388;54.456;9.752;2022-08-01T10:34:34;7.25;;;1.60;;
22441;SDS011;11388;54.456;9.752;2022-08-01T10:37:01;7.40;;;1.58;;
22441;SDS011;11388;54.456;9.752;2022-08-01T10:39:27;6.60;;;1.45;;
22441;SDS011;11388;54.456;9.752;2022-08-01T10:41:55;7.97;;;1.67;;
22441;SDS011;11388;54.456;9.752;2022-08-01T10:44:22;6.60;;;1.50;;
22441;SDS011;11388;54.456;9.752;2022-08-01T10:46:50;9.45;;;1.80;;
22441;SDS011;11388;54.456;9.752;2022-08-01T10:49:20;5.28;;;1.10;;
22441;SDS011;11388;54.456;9.752;2022-08-01T10:51:49;7.80;;;1.50;;
22441;SDS011;11388;54.456;9.752;2022-08-01T10:54:15;6.90;;;1.40;;
22441;SDS011;11388;54.456;9.752;2022-08-01T10:56:49;9.95;;;1.55;;
22441;SDS011;11388;54.456;9.752;2022-08-01T10:59:22;4.72;;;1.10;;
22441;SDS011;11388;54.456;9.752;2022-08-01T11:04:24;7.05;;;1.60;;
22441;SDS011;11388;54.456;9.752;2022-08-01T11:07:16;8.73;;;1.70;;
22441;SDS011;11388;54.456;9.752;2022-08-01T11:09:46;8.07;;;1.55;;
22441;SDS011;11388;54.456;9.752;2022-08-01T11:12:14;8.50;;;1.33;;
22441;SDS011;11388;54.456;9.752;2022-08-01T11:17:44;7.05;;;1.40;;
22441;SDS011;11388;54.456;9.752;2022-08-01T11:20:27;6.30;;;1.50;;
22441;SDS011;11388;54.456;9.752;2022-08-01T11:25:26;6.60;;;1.40;;
22441;SDS011;11388;54.456;9.752;2022-08-01T11:30:40;6.45;;;1.48;;
22441;SDS011;11388;54.456;9.752;2022-08-01T11:33:07;5.60;;;1.40;;
22441;SDS011;11388;54.456;9.752;2022-08-01T11:35:34;6.20;;;1.33;;
22441;SDS011;11388;54.456;9.752;2022-08-01T11:43:35;7.63;;;1.30;;
22441;SDS011;11388;54.456;9.752;2022-08-01T11:46:00;5.40;;;1.10;;
22441;SDS011;11388;54.456;9.752;2022-08-01T11:48:27;7.78;;;1.10;;
22441;SDS011;11388;54.456;9.752;2022-08-01T11:50:56;7.63;;;1.35;;
22441;SDS011;11388;54.456;9.752;2022-08-01T11:53:22;7.15;;;1.52;;
22441;SDS011;11388;54.456;9.752;2022-08-01T11:55:52;5.95;;;1.60;;
22441;SDS011;11388;54.456;9.752;2022-08-01T11:58:22;8.70;;;1.30;;
22441;SDS011;11388;54.456;9.752;2022-08-01T12:00:50;7.07;;;1.13;;
22441;SDS011;11388;54.456;9.752;2022-08-01T12:03:23;9.95;;;1.52;;
22441;SDS011;11388;54.456;9.752;2022-08-01T12:05:57;4.68;;;1.02;;
22441;SDS011;11388;54.456;9.752;2022-08-01T12:08:33;6.53;;;1.15;;
22441;SDS011;11388;54.456;9.752;2022-08-01T12:11:00;6.55;;;1.35;;
22441;SDS011;11388;54.456;9.752;2022-08-01T12:13:26;6.28;;;1.40;;
22441;SDS011;11388;54.456;9.752;2022-08-01T12:15:53;6.93;;;1.38;;
22441;SDS011;11388;54.456;9.752;2022-08-01T12:18:19;5.68;;;1.52;;
22441;SDS011;11388;54.456;9.752;2022-08-01T12:20:45;8.93;;;1.40;;
22441;SDS011;11388;54.456;9.752;2022-08-01T12:23:12;5.63;;;1.55;;
22441;SDS011;11388;54.456;9.752;2022-08-01T12:25:40;8.82;;;1.67;;
22441;SDS011;11388;54.456;9.752;2022-08-01T12:28:09;5.57;;;1.30;;
22441;SDS011;11388;54.456;9.752;2022-08-01T12:30:36;6.25;;;1.42;;
22441;SDS011;11388;54.456;9.752;2022-08-01T12:33:06;6.70;;;1.40;;
22441;SDS011;11388;54.456;9.752;2022-08-01T12:35:33;7.43;;;1.90;;
22441;SDS011;11388;54.456;9.752;2022-08-01T12:38:03;8.57;;;1.80;;
22441;SDS011;11388;54.456;9.752;2022-08-01T12:40:41;6.57;;;1.60;;
22441;SDS011;11388;54.456;9.752;2022-08-01T12:43:08;7.63;;;1.48;;
22441;SDS011;11388;54.456;9.752;2022-08-01T12:45:45;5.95;;;1.42;;
22441;SDS011;11388;54.456;9.752;2022-08-01T12:48:14;4.85;;;1.42;;
22441;SDS011;11388;54.456;9.752;2022-08-01T12:50:48;8.05;;;1.55;;
22441;SDS011;11388;54.456;9.752;2022-08-01T12:53:20;6.57;;;1.20;;
22441;SDS011;11388;54.456;9.752;2022-08-01T12:55:58;7.45;;;1.00;;
22441;SDS011;11388;54.456;9.752;2022-08-01T13:02:17;8.13;;;1.70;;
22441;SDS011;11388;54.456;9.752;2022-08-01T13:05:09;6.80;;;1.70;;
22441;SDS011;11388;54.456;9.752;2022-08-01T13:10:07;6.25;;;1.60;;
22441;SDS011;11388;54.456;9.752;2022-08-01T13:12:34;7.00;;;1.38;;
22441;SDS011;11388;54.456;9.752;2022-08-01T13:15:15;7.00;;;1.50;;
22441;SDS011;11388;54.456;9.752;2022-08-01T13:17:45;6.70;;;1.50;;
22441;SDS011;11388;54.456;9.752;2022-08-01T13:20:21;6.60;;;1.45;;
22441;SDS011;11388;54.456;9.752;2022-08-01T13:22:51;5.10;;;1.30;;
22441;SDS011;11388;54.456;9.752;2022-08-01T13:25:45;4.40;;;1.40;;
22441;SDS011;11388;54.456;9.752;2022-08-01T13:28:26;6.00;;;1.50;;
22441;SDS011;11388;54.456;9.752;2022-08-01T13:31:05;5.35;;;1.40;;
22441;SDS011;11388;54.456;9.752;2022-08-01T13:36:43;6.40;;;1.38;;
22441;SDS011;11388;54.456;9.752;2022-08-01T13:39:11;6.40;;;1.15;;
22441;SDS011;11388;54.456;9.752;2022-08-01T13:41:55;5.47;;;1.45;;
22441;SDS011;11388;54.456;9.752;2022-08-01T13:44:21;4.68;;;1.50;;
22441;SDS011;11388;54.456;9.752;2022-08-01T13:46:52;4.27;;;1.23;;
22441;SDS011;11388;54.456;9.752;2022-08-01T13:49:24;4.28;;;1.42;;
22441;SDS011;11388;54.456;9.752;2022-08-01T13:51:55;6.68;;;1.80;;
22441;SDS011;11388;54.456;9.752;2022-08-01T13:54:28;6.30;;;1.40;;
22441;SDS011;11388;54.456;9.752;2022-08-01T13:56:54;6.45;;;1.63;;
22441;SDS011;11388;54.456;9.752;2022-08-01T13:59:23;3.90;;;1.15;;
22441;SDS011;11388;54.456;9.752;2022-08-01T14:01:51;5.47;;;1.63;;
22441;SDS011;11388;54.456;9.752;2022-08-01T14:04:20;4.25;;;1.20;;
22441;SDS011;11388;54.456;9.752;2022-08-01T14:06:50;7.85;;;1.40;;
22441;SDS011;11388;54.456;9.752;2022-08-01T14:09:29;6.13;;;1.40;;
22441;SDS011;11388;54.456;9.752;2022-08-01T14:12:01;4.70;;;1.33;;
22441;SDS011;11388;54.456;9.752;2022-08-01T14:14:50;6.18;;;1.80;;
22441;SDS011;11388;54.456;9.752;2022-08-01T14:20:09;5.60;;;1.50;;
22441;SDS011;11388;54.456;9.752;2022-08-01T14:22:35;5.55;;;1.52;;
22441;SDS011;11388;54.456;9.752;2022-08-01T14:25:05;5.43;;;1.40;;
22441;SDS011;11388;54.456;9.752;2022-08-01T14:27:50;7.72;;;1.40;;
22441;SDS011;11388;54.456;9.752;2022-08-01T14:30:19;8.25;;;1.55;;
22441;SDS011;11388;54.456;9.752;2022-08-01T14:32:45;7.32;;;1.38;;
22441;SDS011;11388;54.456;9.752;2022-08-01T14:35:11;6.05;;;1.15;;
22441;SDS011;11388;54.456;9.752;2022-08-01T14:37:40;5.18;;;1.50;;
22441;SDS011;11388;54.456;9.752;2022-08-01T14:40:06;5.20;;;1.10;;
22441;SDS011;11388;54.456;9.752;2022-08-01T14:42:37;6.85;;;1.40;;
22441;SDS011;11388;54.456;9.752;2022-08-01T14:45:04;5.05;;;1.33;;
22441;SDS011;11388;54.456;9.752;2022-08-01T14:47:43;6.72;;;1.40;;
22441;SDS011;11388;54.456;9.752;2022-08-01T14:50:18;4.80;;;1.45;;
22441;SDS011;11388;54.456;9.752;2022-08-01T14:52:43;5.60;;;1.40;;
22441;SDS011;11388;54.456;9.752;2022-08-01T14:55:10;4.45;;;1.10;;
22441;SDS011;11388;54.456;9.752;2022-08-01T14:57:38;5.93;;;1.35;;
22441;SDS011;11388;54.456;9.752;2022-08-01T15:00:05;6.97;;;1.60;;
22441;SDS011;11388;54.456;9.752;2022-08-01T15:02:35;6.65;;;1.50;;
22441;SDS011;11388;54.456;9.752;2022-08-01T15:05:01;5.20;;;1.33;;
22441;SDS011;11388;54.456;9.752;2022-08-01T15:07:26;5.85;;;1.35;;
22441;SDS011;11388;54.456;9.752;2022-08-01T15:09:52;5.35;;;1.05;;
22441;SDS011;11388;54.456;9.752;2022-08-01T15:12:18;6.88;;;1.38;;
22441;SDS011;11388;54.456;9.752;2022-08-01T15:14:43;5.35;;;1.48;;
22441;SDS011;11388;54.456;9.752;2022-08-01T15:17:25;6.30;;;1.20;;
22441;SDS011;11388;54.456;9.752;2022-08-01T15:19:57;5.10;;;1.40;;
22441;SDS011;11388;54.456;9.752;2022-08-01T15:22:28;5.07;;;1.23;;
22441;SDS011;11388;54.456;9.752;2022-08-01T15:24:54;6.07;;;1.40;;
22441;SDS011;11388;54.456;9.752;2022-08-01T15:27:21;5.07;;;1.27;;
22441;SDS011;11388;54.456;9.752;2022-08-01T15:29:47;6.20;;;1.33;;
22441;SDS011;11388;54.456;9.752;2022-08-01T15:32:14;7.13;;;1.30;;
22441;SDS011;11388;54.456;9.752;2022-08-01T15:34:41;7.20;;;1.20;;
22441;SDS011;11388;54.456;9.752;2022-08-01T15:37:07;6.85;;;1.33;;
22441;SDS011;11388;54.456;9.752;2022-08-01T15:39:34;6.47;;;1.40;;
22441;SDS011;11388;54.456;9.752;2022-08-01T15:42:02;6.15;;;1.40;;
22441;SDS011;11388;54.456;9.752;2022-08-01T15:44:33;5.82;;;1.50;;
22441;SDS011;11388;54.456;9.752;2022-08-01T15:46:59;5.90;;;1.30;;
22441;SDS011;11388;54.456;9.752;2022-08-01T15:49:25;8.43;;;1.48;;
22441;SDS011;11388;54.456;9.752;2022-08-01T15:51:52;7.13;;;1.33;;
22441;SDS011;11388;54.456;9.752;2022-08-01T15:54:18;5.38;;;1.15;;
22441;SDS011;11388;54.456;9.752;2022-08-01T15:56:44;6.10;;;1.30;;
22441;SDS011;11388;54.456;9.752;2022-08-01T15:59:10;5.97;;;1.40;;
22441;SDS011;11388;54.456;9.752;2022-08-01T16:01:44;5.40;;;1.20;;
22441;SDS011;11388;54.456;9.752;2022-08-01T16:04:10;6.80;;;1.20;;
22441;SDS011;11388;54.456;9.752;2022-08-01T16:06:36;7.82;;;1.45;;
22441;SDS011;11388;54.456;9.752;2022-08-01T16:09:05;5.97;;;1.35;;
22441;SDS011;11388;54.456;9.752;2022-08-01T16:11:30;7.55;;;1.48;;
22441;SDS011;11388;54.456;9.752;2022-08-01T16:13:56;8.63;;;1.20;;
22441;SDS011;11388;54.456;9.752;2022-08-01T16:16:22;6.18;;;1.15;;
22441;SDS011;11388;54.456;9.752;2022-08-01T16:18:48;6.15;;;1.25;;
22441;SDS011;11388;54.456;9.752;2022-08-01T16:21:14;5.80;;;1.20;;
22441;SDS011;11388;54.456;9.752;2022-08-01T16:23:40;5.85;;;1.27;;
22441;SDS011;11388;54.456;9.752;2022-08-01T16:26:07;7.28;;;1.40;;
22441;SDS011;11388;54.456;9.752;2022-08-01T16:28:33;4.20;;;1.13;;